sensor_id;sensor_type;location;lat;lon;timestamp;P1;durP1;ratioP1;P2;durP2;ratioP2
13951;SDS011;39535;52.192;9.886;2023-06-04T00:00:51;2.23;;;1.57;;
13951;SDS011;39535;52.192;9.886;2023-06-04T00:03:18;1.70;;;1.60;;
13951;SDS011;39535;52.192;9.886;2023-06-04T00:05:44;1.23;;;1.13;;
13951;SDS011;39535;52.192;9.886;2023-06-04T00:08:10;1.20;;;1.10;;
13951;SDS011;39535;52.192;9.886;2023-06-04T00:10:37;2.53;;;1.27;;
13951;SDS011;39535;52.192;9.886;2023-06-04T00:13:05;1.00;;;1.00;;
13951;SDS011;39535;52.192;9.886;2023-06-04T00:15:32;1.20;;;1.10;;
13951;SDS011;39535;52.192;9.886;2023-06-04T00:18:00;3.30;;;1.30;;
13951;SDS011;39535;52.192;9.886;2023-06-04T00:20:26;1.70;;;1.07;;
13951;SDS011;39535;52.192;9.886;2023-06-04T00:22:52;1.93;;;1.20;;
13951;SDS011;39535;52.192;9.886;2023-06-04T00:25:19;1.30;;;1.20;;
13951;SDS011;39535;52.192;9.886;2023-06-04T00:27:45;2.37;;;1.10;;
13951;SDS011;39535;52.192;9.886;2023-06-04T00:30:12;1.20;;;1.10;;
13951;SDS011;39535;52.192;9.886;2023-06-04T00:32:39;1.20;;;1.00;;
13951;SDS011;39535;52.192;9.886;2023-06-04T00:35:07;1.00;;;1.00;;
13951;SDS011;39535;52.192;9.886;2023-06-04T00:37:34;1.53;;;1.10;;
13951;SDS011;39535;52.192;9.886;2023-06-04T00:40:01;1.07;;;1.00;;
13951;SDS011;39535;52.192;9.886;2023-06-04T00:42:27;1.20;;;1.10;;
13951;SDS011;39535;52.192;9.886;2023-06-04T00:44:53;2.50;;;1.13;;
13951;SDS011;39535;52.192;9.886;2023-06-04T00:47:22;1.27;;;1.10;;
13951;SDS011;39535;52.192;9.886;2023-06-04T00:49:49;1.73;;;1.10;;
13951;SDS011;39535;52.192;9.886;2023-06-04T00:52:17;1.20;;;1.10;;
13951;SDS011;39535;52.192;9.886;2023-06-04T00:54:44;2.73;;;1.00;;
13951;SDS011;39535;52.192;9.886;2023-06-04T00:57:10;2.87;;;0.97;;
13951;SDS011;39535;52.192;9.886;2023-06-04T00:59:37;1.00;;;0.97;;
13951;SDS011;39535;52.192;9.886;2023-06-04T01:02:06;1.10;;;1.00;;
13951;SDS011;39535;52.192;9.886;2023-06-04T01:04:36;1.17;;;1.00;;
13951;SDS011;39535;52.192;9.886;2023-06-04T01:07:07;1.03;;;1.03;;
13951;SDS011;39535;52.192;9.886;2023-06-04T01:09:38;1.23;;;1.13;;
13951;SDS011;39535;52.192;9.886;2023-06-04T01:12:05;1.00;;;0.90;;
13951;SDS011;39535;52.192;9.886;2023-06-04T01:14:33;1.80;;;1.33;;
13951;SDS011;39535;52.192;9.886;2023-06-04T01:16:59;1.50;;;1.00;;
13951;SDS011;39535;52.192;9.886;2023-06-04T01:19:42;0.97;;;0.97;;
13951;SDS011;39535;52.192;9.886;2023-06-04T01:22:26;1.60;;;1.40;;
13951;SDS011;39535;52.192;9.886;2023-06-04T01:25:02;1.20;;;1.10;;
13951;SDS011;39535;52.192;9.886;2023-06-04T01:27:29;1.80;;;1.33;;
13951;SDS011;39535;52.192;9.886;2023-06-04T01:29:57;1.30;;;1.20;;
13951;SDS011;39535;52.192;9.886;2023-06-04T01:32:25;1.37;;;1.27;;
13951;SDS011;39535;52.192;9.886;2023-06-04T01:34:52;1.93;;;1.20;;
13951;SDS011;39535;52.192;9.886;2023-06-04T01:37:19;2.60;;;1.10;;
13951;SDS011;39535;52.192;9.886;2023-06-04T01:39:45;1.43;;;1.10;;
13951;SDS011;39535;52.192;9.886;2023-06-04T01:42:13;1.87;;;1.13;;
13951;SDS011;39535;52.192;9.886;2023-06-04T01:44:39;1.43;;;1.07;;
13951;SDS011;39535;52.192;9.886;2023-06-04T01:47:06;1.37;;;1.27;;
13951;SDS011;39535;52.192;9.886;2023-06-04T01:49:32;1.90;;;1.10;;
13951;SDS011;39535;52.192;9.886;2023-06-04T01:51:58;1.20;;;1.00;;
13951;SDS011;39535;52.192;9.886;2023-06-04T01:54:25;1.00;;;1.00;;
13951;SDS011;39535;52.192;9.886;2023-06-04T01:56:55;1.70;;;1.20;;
13951;SDS011;39535;52.192;9.886;2023-06-04T01:59:23;1.33;;;1.07;;
13951;SDS011;39535;52.192;9.886;2023-06-04T02:01:49;1.63;;;1.10;;
13951;SDS011;39535;52.192;9.886;2023-06-04T02:04:15;1.23;;;1.17;;
13951;SDS011;39535;52.192;9.886;2023-06-04T02:06:41;1.67;;;1.10;;
13951;SDS011;39535;52.192;9.886;2023-06-04T02:09:08;1.40;;;1.30;;
13951;SDS011;39535;52.192;9.886;2023-06-04T02:11:34;1.33;;;1.23;;
13951;SDS011;39535;52.192;9.886;2023-06-04T02:14:00;1.73;;;1.43;;
13951;SDS011;39535;52.192;9.886;2023-06-04T02:16:28;1.47;;;1.20;;
13951;SDS011;39535;52.192;9.886;2023-06-04T02:18:55;1.50;;;1.40;;
13951;SDS011;39535;52.192;9.886;2023-06-04T02:21:21;2.00;;;1.40;;
13951;SDS011;39535;52.192;9.886;2023-06-04T02:23:48;1.40;;;1.23;;
13951;SDS011;39535;52.192;9.886;2023-06-04T02:26:14;1.60;;;1.30;;
13951;SDS011;39535;52.192;9.886;2023-06-04T02:28:40;1.53;;;1.20;;
13951;SDS011;39535;52.192;9.886;2023-06-04T02:31:07;2.50;;;1.30;;
13951;SDS011;39535;52.192;9.886;2023-06-04T02:33:34;1.27;;;1.13;;
13951;SDS011;39535;52.192;9.886;2023-06-04T02:36:01;1.30;;;1.20;;
13951;SDS011;39535;52.192;9.886;2023-06-04T02:38:27;2.20;;;1.40;;
13951;SDS011;39535;52.192;9.886;2023-06-04T02:40:53;1.37;;;1.23;;
13951;SDS011;39535;52.192;9.886;2023-06-04T02:43:20;2.30;;;1.43;;
13951;SDS011;39535;52.192;9.886;2023-06-04T02:45:46;1.40;;;1.30;;
13951;SDS011;39535;52.192;9.886;2023-06-04T02:48:12;1.70;;;1.43;;
13951;SDS011;39535;52.192;9.886;2023-06-04T02:50:40;2.80;;;1.23;;
13951;SDS011;39535;52.192;9.886;2023-06-04T02:53:07;2.10;;;1.33;;
13951;SDS011;39535;52.192;9.886;2023-06-04T02:55:34;1.97;;;1.30;;
13951;SDS011;39535;52.192;9.886;2023-06-04T02:58:01;2.83;;;1.30;;
13951;SDS011;39535;52.192;9.886;2023-06-04T03:00:27;1.60;;;1.50;;
13951;SDS011;39535;52.192;9.886;2023-06-04T03:02:54;1.43;;;1.33;;
13951;SDS011;39535;52.192;9.886;2023-06-04T03:05:26;4.30;;;2.37;;
13951;SDS011;39535;52.192;9.886;2023-06-04T03:07:57;2.13;;;1.20;;
13951;SDS011;39535;52.192;9.886;2023-06-04T03:10:24;4.50;;;1.30;;
13951;SDS011;39535;52.192;9.886;2023-06-04T03:12:50;2.07;;;1.40;;
13951;SDS011;39535;52.192;9.886;2023-06-04T03:15:17;1.20;;;1.10;;
13951;SDS011;39535;52.192;9.886;2023-06-04T03:17:43;1.80;;;1.30;;
13951;SDS011;39535;52.192;9.886;2023-06-04T03:20:10;2.13;;;1.17;;
13951;SDS011;39535;52.192;9.886;2023-06-04T03:22:36;2.10;;;1.10;;
13951;SDS011;39535;52.192;9.886;2023-06-04T03:25:05;1.23;;;1.13;;
13951;SDS011;39535;52.192;9.886;2023-06-04T03:27:32;1.30;;;1.20;;
13951;SDS011;39535;52.192;9.886;2023-06-04T03:29:59;4.00;;;1.33;;
13951;SDS011;39535;52.192;9.886;2023-06-04T03:32:25;1.60;;;1.50;;
13951;SDS011;39535;52.192;9.886;2023-06-04T03:34:52;3.43;;;1.53;;
13951;SDS011;39535;52.192;9.886;2023-06-04T03:37:18;2.53;;;1.53;;
13951;SDS011;39535;52.192;9.886;2023-06-04T03:39:44;1.80;;;1.70;;
13951;SDS011;39535;52.192;9.886;2023-06-04T03:42:12;2.30;;;1.60;;
13951;SDS011;39535;52.192;9.886;2023-06-04T03:44:38;2.57;;;1.70;;
13951;SDS011;39535;52.192;9.886;2023-06-04T03:47:05;1.90;;;1.80;;
13951;SDS011;39535;52.192;9.886;2023-06-04T03:49:31;1.70;;;1.60;;
13951;SDS011;39535;52.192;9.886;2023-06-04T03:51:57;2.50;;;1.93;;
13951;SDS011;39535;52.192;9.886;2023-06-04T03:54:24;1.87;;;1.70;;
13951;SDS011;39535;52.192;9.886;2023-06-04T03:56:50;1.80;;;1.63;;
13951;SDS011;39535;52.192;9.886;2023-06-04T03:59:18;3.93;;;1.60;;
13951;SDS011;39535;52.192;9.886;2023-06-04T04:01:44;3.10;;;1.70;;
13951;SDS011;39535;52.192;9.886;2023-06-04T04:04:10;2.40;;;1.70;;
13951;SDS011;39535;52.192;9.886;2023-06-04T04:06:37;1.93;;;1.50;;
13951;SDS011;39535;52.192;9.886;2023-06-04T04:09:03;2.47;;;1.70;;
13951;SDS011;39535;52.192;9.886;2023-06-04T04:11:31;2.80;;;1.63;;
13951;SDS011;39535;52.192;9.886;2023-06-04T04:13:57;1.83;;;1.67;;
13951;SDS011;39535;52.192;9.886;2023-06-04T04:16:25;1.57;;;1.43;;
13951;SDS011;39535;52.192;9.886;2023-06-04T04:18:52;2.00;;;1.80;;
13951;SDS011;39535;52.192;9.886;2023-06-04T04:21:18;2.70;;;1.70;;
13951;SDS011;39535;52.192;9.886;2023-06-04T04:23:46;2.33;;;1.80;;
13951;SDS011;39535;52.192;9.886;2023-06-04T04:26:12;1.50;;;1.40;;
13951;SDS011;39535;52.192;9.886;2023-06-04T04:28:41;3.23;;;1.50;;
13951;SDS011;39535;52.192;9.886;2023-06-04T04:31:08;2.50;;;1.80;;
13951;SDS011;39535;52.192;9.886;2023-06-04T04:33:36;1.90;;;1.70;;
13951;SDS011;39535;52.192;9.886;2023-06-04T04:36:04;1.80;;;1.70;;
13951;SDS011;39535;52.192;9.886;2023-06-04T04:38:33;2.03;;;1.83;;
13951;SDS011;39535;52.192;9.886;2023-06-04T04:41:00;2.33;;;2.00;;
13951;SDS011;39535;52.192;9.886;2023-06-04T04:43:30;2.70;;;1.97;;
13951;SDS011;39535;52.192;9.886;2023-06-04T04:45:57;1.73;;;1.63;;
13951;SDS011;39535;52.192;9.886;2023-06-04T04:48:24;3.93;;;1.70;;
13951;SDS011;39535;52.192;9.886;2023-06-04T04:50:51;2.20;;;1.87;;
13951;SDS011;39535;52.192;9.886;2023-06-04T04:53:18;2.40;;;1.87;;
13951;SDS011;39535;52.192;9.886;2023-06-04T04:55:44;1.77;;;1.63;;
13951;SDS011;39535;52.192;9.886;2023-06-04T04:58:11;2.03;;;1.83;;
13951;SDS011;39535;52.192;9.886;2023-06-04T05:00:37;1.60;;;1.50;;
13951;SDS011;39535;52.192;9.886;2023-06-04T05:03:04;2.10;;;1.90;;
13951;SDS011;39535;52.192;9.886;2023-06-04T05:05:31;1.83;;;1.73;;
13951;SDS011;39535;52.192;9.886;2023-06-04T05:07:59;2.13;;;1.93;;
13951;SDS011;39535;52.192;9.886;2023-06-04T05:10:26;2.23;;;1.77;;
13951;SDS011;39535;52.192;9.886;2023-06-04T05:12:53;1.40;;;1.30;;
13951;SDS011;39535;52.192;9.886;2023-06-04T05:15:19;2.40;;;1.80;;
13951;SDS011;39535;52.192;9.886;2023-06-04T05:17:46;1.93;;;1.40;;
13951;SDS011;39535;52.192;9.886;2023-06-04T05:20:12;1.63;;;1.53;;
13951;SDS011;39535;52.192;9.886;2023-06-04T05:22:40;3.80;;;1.67;;
13951;SDS011;39535;52.192;9.886;2023-06-04T05:25:09;1.60;;;1.50;;
13951;SDS011;39535;52.192;9.886;2023-06-04T05:27:35;1.90;;;1.73;;
13951;SDS011;39535;52.192;9.886;2023-06-04T05:30:02;2.07;;;1.50;;
13951;SDS011;39535;52.192;9.886;2023-06-04T05:32:28;2.70;;;1.67;;
13951;SDS011;39535;52.192;9.886;2023-06-04T05:34:55;2.27;;;1.70;;
13951;SDS011;39535;52.192;9.886;2023-06-04T05:37:23;1.53;;;1.40;;
13951;SDS011;39535;52.192;9.886;2023-06-04T05:39:51;1.80;;;1.70;;
13951;SDS011;39535;52.192;9.886;2023-06-04T05:42:19;2.00;;;1.50;;
13951;SDS011;39535;52.192;9.886;2023-06-04T05:44:46;2.13;;;1.80;;
13951;SDS011;39535;52.192;9.886;2023-06-04T05:47:13;1.87;;;1.77;;
13951;SDS011;39535;52.192;9.886;2023-06-04T05:49:42;2.10;;;1.90;;
13951;SDS011;39535;52.192;9.886;2023-06-04T05:52:12;2.07;;;1.80;;
13951;SDS011;39535;52.192;9.886;2023-06-04T05:54:38;1.90;;;1.70;;
13951;SDS011;39535;52.192;9.886;2023-06-04T05:57:05;2.67;;;2.10;;
13951;SDS011;39535;52.192;9.886;2023-06-04T05:59:32;2.40;;;2.20;;
13951;SDS011;39535;52.192;9.886;2023-06-04T06:01:59;2.23;;;2.07;;
13951;SDS011;39535;52.192;9.886;2023-06-04T06:04:25;2.13;;;1.83;;
13951;SDS011;39535;52.192;9.886;2023-06-04T06:06:52;2.80;;;1.73;;
13951;SDS011;39535;52.192;9.886;2023-06-04T06:09:19;2.10;;;2.00;;
13951;SDS011;39535;52.192;9.886;2023-06-04T06:11:45;2.67;;;1.70;;
13951;SDS011;39535;52.192;9.886;2023-06-04T06:14:12;1.83;;;1.67;;
13951;SDS011;39535;52.192;9.886;2023-06-04T06:16:39;2.03;;;1.80;;
13951;SDS011;39535;52.192;9.886;2023-06-04T06:19:06;2.40;;;1.70;;
13951;SDS011;39535;52.192;9.886;2023-06-04T06:21:32;1.80;;;1.70;;
13951;SDS011;39535;52.192;9.886;2023-06-04T06:23:58;2.90;;;1.87;;
13951;SDS011;39535;52.192;9.886;2023-06-04T06:26:25;1.57;;;1.47;;
13951;SDS011;39535;52.192;9.886;2023-06-04T06:28:51;1.93;;;1.67;;
13951;SDS011;39535;52.192;9.886;2023-06-04T06:31:17;2.40;;;1.80;;
13951;SDS011;39535;52.192;9.886;2023-06-04T06:33:46;1.60;;;1.50;;
13951;SDS011;39535;52.192;9.886;2023-06-04T06:36:12;2.20;;;1.90;;
13951;SDS011;39535;52.192;9.886;2023-06-04T06:38:43;3.57;;;1.33;;
13951;SDS011;39535;52.192;9.886;2023-06-04T06:41:10;2.03;;;1.70;;
13951;SDS011;39535;52.192;9.886;2023-06-04T06:43:36;2.83;;;1.60;;
13951;SDS011;39535;52.192;9.886;2023-06-04T06:46:03;2.50;;;1.50;;
13951;SDS011;39535;52.192;9.886;2023-06-04T06:48:29;1.53;;;1.43;;
13951;SDS011;39535;52.192;9.886;2023-06-04T06:50:57;1.37;;;1.27;;
13951;SDS011;39535;52.192;9.886;2023-06-04T06:53:23;3.60;;;1.50;;
13951;SDS011;39535;52.192;9.886;2023-06-04T06:55:49;1.50;;;1.40;;
13951;SDS011;39535;52.192;9.886;2023-06-04T06:58:16;1.63;;;1.53;;
13951;SDS011;39535;52.192;9.886;2023-06-04T07:00:42;1.33;;;1.23;;
13951;SDS011;39535;52.192;9.886;2023-06-04T07:03:09;1.90;;;1.63;;
13951;SDS011;39535;52.192;9.886;2023-06-04T07:05:35;4.20;;;2.17;;
13951;SDS011;39535;52.192;9.886;2023-06-04T07:08:03;1.60;;;1.50;;
13951;SDS011;39535;52.192;9.886;2023-06-04T07:10:30;1.73;;;1.63;;
13951;SDS011;39535;52.192;9.886;2023-06-04T07:12:56;1.60;;;1.50;;
13951;SDS011;39535;52.192;9.886;2023-06-04T07:15:23;1.77;;;1.60;;
13951;SDS011;39535;52.192;9.886;2023-06-04T07:17:49;2.20;;;2.00;;
13951;SDS011;39535;52.192;9.886;2023-06-04T07:20:15;1.80;;;1.70;;
13951;SDS011;39535;52.192;9.886;2023-06-04T07:22:43;1.53;;;1.43;;
13951;SDS011;39535;52.192;9.886;2023-06-04T07:25:11;4.30;;;1.70;;
13951;SDS011;39535;52.192;9.886;2023-06-04T07:27:38;1.63;;;1.53;;
13951;SDS011;39535;52.192;9.886;2023-06-04T07:30:05;2.30;;;1.70;;
13951;SDS011;39535;52.192;9.886;2023-06-04T07:32:33;2.03;;;1.80;;
13951;SDS011;39535;52.192;9.886;2023-06-04T07:35:00;2.83;;;1.80;;
13951;SDS011;39535;52.192;9.886;2023-06-04T07:37:27;1.90;;;1.70;;
13951;SDS011;39535;52.192;9.886;2023-06-04T07:39:54;2.47;;;2.00;;
13951;SDS011;39535;52.192;9.886;2023-06-04T07:42:21;2.10;;;1.50;;
13951;SDS011;39535;52.192;9.886;2023-06-04T07:44:48;2.53;;;1.57;;
13951;SDS011;39535;52.192;9.886;2023-06-04T07:47:14;1.87;;;1.77;;
13951;SDS011;39535;52.192;9.886;2023-06-04T07:49:40;1.97;;;1.80;;
13951;SDS011;39535;52.192;9.886;2023-06-04T07:52:07;2.27;;;1.60;;
13951;SDS011;39535;52.192;9.886;2023-06-04T07:54:33;2.83;;;1.70;;
13951;SDS011;39535;52.192;9.886;2023-06-04T07:56:59;2.67;;;1.83;;
13951;SDS011;39535;52.192;9.886;2023-06-04T07:59:27;3.17;;;1.83;;
13951;SDS011;39535;52.192;9.886;2023-06-04T08:01:54;1.80;;;1.70;;
13951;SDS011;39535;52.192;9.886;2023-06-04T08:04:21;2.63;;;1.93;;
13951;SDS011;39535;52.192;9.886;2023-06-04T08:06:47;2.27;;;1.60;;
13951;SDS011;39535;52.192;9.886;2023-06-04T08:09:14;2.90;;;2.10;;
13951;SDS011;39535;52.192;9.886;2023-06-04T08:11:41;3.50;;;1.90;;
13951;SDS011;39535;52.192;9.886;2023-06-04T08:14:09;1.90;;;1.63;;
13951;SDS011;39535;52.192;9.886;2023-06-04T08:16:38;3.53;;;1.80;;
13951;SDS011;39535;52.192;9.886;2023-06-04T08:19:05;3.70;;;2.10;;
13951;SDS011;39535;52.192;9.886;2023-06-04T08:21:32;1.77;;;1.67;;
13951;SDS011;39535;52.192;9.886;2023-06-04T08:24:00;1.67;;;1.50;;
13951;SDS011;39535;52.192;9.886;2023-06-04T08:26:27;1.73;;;1.60;;
13951;SDS011;39535;52.192;9.886;2023-06-04T08:28:54;2.33;;;1.73;;
13951;SDS011;39535;52.192;9.886;2023-06-04T08:31:23;2.90;;;1.73;;
13951;SDS011;39535;52.192;9.886;2023-06-04T08:33:50;1.60;;;1.40;;
13951;SDS011;39535;52.192;9.886;2023-06-04T08:36:17;2.33;;;1.57;;
13951;SDS011;39535;52.192;9.886;2023-06-04T08:38:43;4.50;;;3.00;;
13951;SDS011;39535;52.192;9.886;2023-06-04T08:41:13;2.43;;;1.37;;
13951;SDS011;39535;52.192;9.886;2023-06-04T08:43:43;2.47;;;1.77;;
13951;SDS011;39535;52.192;9.886;2023-06-04T08:46:11;4.87;;;1.80;;
13951;SDS011;39535;52.192;9.886;2023-06-04T08:48:38;1.70;;;1.30;;
13951;SDS011;39535;52.192;9.886;2023-06-04T08:51:06;1.30;;;1.20;;
13951;SDS011;39535;52.192;9.886;2023-06-04T08:53:34;2.77;;;1.40;;
13951;SDS011;39535;52.192;9.886;2023-06-04T08:56:00;3.00;;;1.43;;
13951;SDS011;39535;52.192;9.886;2023-06-04T08:58:29;1.57;;;1.20;;
13951;SDS011;39535;52.192;9.886;2023-06-04T09:00:57;1.40;;;1.30;;
13951;SDS011;39535;52.192;9.886;2023-06-04T09:03:23;1.70;;;1.60;;
13951;SDS011;39535;52.192;9.886;2023-06-04T09:05:51;1.83;;;1.10;;
13951;SDS011;39535;52.192;9.886;2023-06-04T09:08:20;1.43;;;1.30;;
13951;SDS011;39535;52.192;9.886;2023-06-04T09:10:49;1.20;;;1.10;;
13951;SDS011;39535;52.192;9.886;2023-06-04T09:13:17;2.70;;;1.50;;
13951;SDS011;39535;52.192;9.886;2023-06-04T09:15:45;2.03;;;1.40;;
13951;SDS011;39535;52.192;9.886;2023-06-04T09:18:11;2.43;;;1.50;;
13951;SDS011;39535;52.192;9.886;2023-06-04T09:20:38;2.10;;;1.17;;
13951;SDS011;39535;52.192;9.886;2023-06-04T09:23:12;1.50;;;1.40;;
13951;SDS011;39535;52.192;9.886;2023-06-04T09:25:43;1.60;;;1.10;;
13951;SDS011;39535;52.192;9.886;2023-06-04T09:28:10;2.53;;;1.37;;
13951;SDS011;39535;52.192;9.886;2023-06-04T09:30:36;2.40;;;1.00;;
13951;SDS011;39535;52.192;9.886;2023-06-04T09:33:06;1.17;;;0.90;;
13951;SDS011;39535;52.192;9.886;2023-06-04T09:35:33;1.17;;;1.00;;
13951;SDS011;39535;52.192;9.886;2023-06-04T09:37:59;1.47;;;1.10;;
13951;SDS011;39535;52.192;9.886;2023-06-04T09:40:34;1.47;;;1.23;;
13951;SDS011;39535;52.192;9.886;2023-06-04T09:43:03;1.70;;;1.23;;
13951;SDS011;39535;52.192;9.886;2023-06-04T09:45:31;0.97;;;0.90;;
13951;SDS011;39535;52.192;9.886;2023-06-04T09:47:58;2.30;;;1.10;;
13951;SDS011;39535;52.192;9.886;2023-06-04T09:50:25;1.87;;;1.30;;
13951;SDS011;39535;52.192;9.886;2023-06-04T09:52:52;2.67;;;1.50;;
13951;SDS011;39535;52.192;9.886;2023-06-04T09:55:19;1.03;;;0.90;;
13951;SDS011;39535;52.192;9.886;2023-06-04T09:57:47;1.20;;;1.00;;
13951;SDS011;39535;52.192;9.886;2023-06-04T10:00:17;1.67;;;0.80;;
13951;SDS011;39535;52.192;9.886;2023-06-04T10:02:45;1.83;;;1.37;;
13951;SDS011;39535;52.192;9.886;2023-06-04T10:05:14;1.63;;;0.97;;
13951;SDS011;39535;52.192;9.886;2023-06-04T10:07:42;1.43;;;1.00;;
13951;SDS011;39535;52.192;9.886;2023-06-04T10:10:11;2.30;;;1.23;;
13951;SDS011;39535;52.192;9.886;2023-06-04T10:12:41;1.60;;;1.00;;
13951;SDS011;39535;52.192;9.886;2023-06-04T10:15:10;1.03;;;1.03;;
13951;SDS011;39535;52.192;9.886;2023-06-04T10:17:39;1.13;;;1.03;;
13951;SDS011;39535;52.192;9.886;2023-06-04T10:20:06;2.53;;;1.00;;
13951;SDS011;39535;52.192;9.886;2023-06-04T10:22:34;1.93;;;1.10;;
13951;SDS011;39535;52.192;9.886;2023-06-04T10:25:01;1.20;;;1.10;;
13951;SDS011;39535;52.192;9.886;2023-06-04T10:27:28;2.30;;;1.07;;
13951;SDS011;39535;52.192;9.886;2023-06-04T10:29:56;1.57;;;1.00;;
13951;SDS011;39535;52.192;9.886;2023-06-04T10:32:25;2.03;;;1.03;;
13951;SDS011;39535;52.192;9.886;2023-06-04T10:34:54;2.87;;;1.17;;
13951;SDS011;39535;52.192;9.886;2023-06-04T10:37:22;1.63;;;0.80;;
13951;SDS011;39535;52.192;9.886;2023-06-04T10:39:53;2.07;;;1.10;;
13951;SDS011;39535;52.192;9.886;2023-06-04T10:42:20;1.13;;;1.03;;
13951;SDS011;39535;52.192;9.886;2023-06-04T10:44:49;1.10;;;1.00;;
13951;SDS011;39535;52.192;9.886;2023-06-04T10:47:20;1.43;;;1.00;;
13951;SDS011;39535;52.192;9.886;2023-06-04T10:49:47;1.20;;;0.90;;
13951;SDS011;39535;52.192;9.886;2023-06-04T10:52:16;1.33;;;1.10;;
13951;SDS011;39535;52.192;9.886;2023-06-04T10:54:44;1.53;;;1.10;;
13951;SDS011;39535;52.192;9.886;2023-06-04T10:57:11;2.43;;;0.97;;
13951;SDS011;39535;52.192;9.886;2023-06-04T10:59:38;2.87;;;1.10;;
13951;SDS011;39535;52.192;9.886;2023-06-04T11:02:05;1.30;;;1.20;;
13951;SDS011;39535;52.192;9.886;2023-06-04T11:04:33;1.43;;;1.00;;
13951;SDS011;39535;52.192;9.886;2023-06-04T11:07:00;1.20;;;0.90;;
13951;SDS011;39535;52.192;9.886;2023-06-04T11:09:29;4.00;;;1.00;;
13951;SDS011;39535;52.192;9.886;2023-06-04T11:11:56;4.03;;;1.10;;
13951;SDS011;39535;52.192;9.886;2023-06-04T11:14:23;1.60;;;1.13;;
13951;SDS011;39535;52.192;9.886;2023-06-04T11:16:49;1.50;;;0.97;;
13951;SDS011;39535;52.192;9.886;2023-06-04T11:19:16;1.30;;;1.10;;
13951;SDS011;39535;52.192;9.886;2023-06-04T11:21:42;1.00;;;0.97;;
13951;SDS011;39535;52.192;9.886;2023-06-04T11:24:11;1.60;;;1.03;;
13951;SDS011;39535;52.192;9.886;2023-06-04T11:26:39;1.23;;;1.10;;
13951;SDS011;39535;52.192;9.886;2023-06-04T11:29:06;2.20;;;1.10;;
13951;SDS011;39535;52.192;9.886;2023-06-04T11:31:40;0.90;;;0.90;;
13951;SDS011;39535;52.192;9.886;2023-06-04T11:34:07;1.80;;;0.93;;
13951;SDS011;39535;52.192;9.886;2023-06-04T11:36:33;2.63;;;0.90;;
13951;SDS011;39535;52.192;9.886;2023-06-04T11:39:01;2.43;;;1.17;;
13951;SDS011;39535;52.192;9.886;2023-06-04T11:41:31;1.73;;;1.00;;
13951;SDS011;39535;52.192;9.886;2023-06-04T11:44:00;2.77;;;1.10;;
13951;SDS011;39535;52.192;9.886;2023-06-04T11:46:28;1.60;;;1.20;;
13951;SDS011;39535;52.192;9.886;2023-06-04T11:48:54;1.93;;;1.20;;
13951;SDS011;39535;52.192;9.886;2023-06-04T11:51:21;1.10;;;1.10;;
13951;SDS011;39535;52.192;9.886;2023-06-04T11:53:47;2.43;;;1.27;;
13951;SDS011;39535;52.192;9.886;2023-06-04T11:56:14;1.40;;;1.30;;
13951;SDS011;39535;52.192;9.886;2023-06-04T11:58:40;2.20;;;1.70;;
13951;SDS011;39535;52.192;9.886;2023-06-04T12:01:09;1.40;;;1.30;;
13951;SDS011;39535;52.192;9.886;2023-06-04T12:03:36;1.67;;;1.37;;
13951;SDS011;39535;52.192;9.886;2023-06-04T12:06:10;1.47;;;1.37;;
13951;SDS011;39535;52.192;9.886;2023-06-04T12:08:45;4.17;;;1.40;;
13951;SDS011;39535;52.192;9.886;2023-06-04T12:11:23;1.50;;;1.37;;
13951;SDS011;39535;52.192;9.886;2023-06-04T12:13:51;1.47;;;1.33;;
13951;SDS011;39535;52.192;9.886;2023-06-04T12:16:19;1.50;;;1.30;;
13951;SDS011;39535;52.192;9.886;2023-06-04T12:18:45;1.60;;;1.50;;
13951;SDS011;39535;52.192;9.886;2023-06-04T12:21:16;5.33;;;1.60;;
13951;SDS011;39535;52.192;9.886;2023-06-04T12:23:44;2.67;;;1.30;;
13951;SDS011;39535;52.192;9.886;2023-06-04T12:26:19;1.27;;;1.17;;
13951;SDS011;39535;52.192;9.886;2023-06-04T12:28:58;1.40;;;1.30;;
13951;SDS011;39535;52.192;9.886;2023-06-04T12:31:26;1.40;;;1.30;;
13951;SDS011;39535;52.192;9.886;2023-06-04T12:33:56;1.97;;;1.23;;
13951;SDS011;39535;52.192;9.886;2023-06-04T12:36:23;1.50;;;1.40;;
13951;SDS011;39535;52.192;9.886;2023-06-04T12:38:49;1.50;;;1.40;;
13951;SDS011;39535;52.192;9.886;2023-06-04T12:41:16;1.77;;;1.23;;
13951;SDS011;39535;52.192;9.886;2023-06-04T12:43:42;1.63;;;1.23;;
13951;SDS011;39535;52.192;9.886;2023-06-04T12:46:09;1.37;;;1.20;;
13951;SDS011;39535;52.192;9.886;2023-06-04T12:48:42;1.57;;;1.27;;
13951;SDS011;39535;52.192;9.886;2023-06-04T12:51:08;1.50;;;1.30;;
13951;SDS011;39535;52.192;9.886;2023-06-04T12:53:37;1.40;;;1.30;;
13951;SDS011;39535;52.192;9.886;2023-06-04T12:56:04;1.83;;;1.00;;
13951;SDS011;39535;52.192;9.886;2023-06-04T12:58:30;1.67;;;1.37;;
13951;SDS011;39535;52.192;9.886;2023-06-04T13:00:59;1.50;;;1.30;;
13951;SDS011;39535;52.192;9.886;2023-06-04T13:03:25;1.40;;;1.30;;
13951;SDS011;39535;52.192;9.886;2023-06-04T13:05:53;1.03;;;1.00;;
13951;SDS011;39535;52.192;9.886;2023-06-04T13:08:19;1.30;;;1.20;;
13951;SDS011;39535;52.192;9.886;2023-06-04T13:10:46;1.43;;;1.00;;
13951;SDS011;39535;52.192;9.886;2023-06-04T13:13:13;1.53;;;1.20;;
13951;SDS011;39535;52.192;9.886;2023-06-04T13:15:40;1.17;;;1.10;;
13951;SDS011;39535;52.192;9.886;2023-06-04T13:18:07;1.37;;;1.20;;
13951;SDS011;39535;52.192;9.886;2023-06-04T13:20:34;1.17;;;1.07;;
13951;SDS011;39535;52.192;9.886;2023-06-04T13:23:02;2.20;;;1.53;;
13951;SDS011;39535;52.192;9.886;2023-06-04T13:25:29;1.63;;;1.07;;
13951;SDS011;39535;52.192;9.886;2023-06-04T13:27:57;1.20;;;1.10;;
13951;SDS011;39535;52.192;9.886;2023-06-04T13:30:23;1.40;;;1.30;;
13951;SDS011;39535;52.192;9.886;2023-06-04T13:32:50;2.33;;;1.40;;
13951;SDS011;39535;52.192;9.886;2023-06-04T13:35:16;1.33;;;1.20;;
13951;SDS011;39535;52.192;9.886;2023-06-04T13:37:43;1.70;;;1.30;;
13951;SDS011;39535;52.192;9.886;2023-06-04T13:40:11;1.60;;;1.10;;
13951;SDS011;39535;52.192;9.886;2023-06-04T13:42:37;1.40;;;1.20;;
13951;SDS011;39535;52.192;9.886;2023-06-04T13:45:04;1.93;;;1.40;;
13951;SDS011;39535;52.192;9.886;2023-06-04T13:47:31;1.53;;;1.10;;
13951;SDS011;39535;52.192;9.886;2023-06-04T13:49:58;1.30;;;1.20;;
13951;SDS011;39535;52.192;9.886;2023-06-04T13:52:25;1.43;;;1.20;;
13951;SDS011;39535;52.192;9.886;2023-06-04T13:54:53;3.13;;;1.37;;
13951;SDS011;39535;52.192;9.886;2023-06-04T13:57:21;1.40;;;1.30;;
13951;SDS011;39535;52.192;9.886;2023-06-04T13:59:48;1.23;;;1.13;;
13951;SDS011;39535;52.192;9.886;2023-06-04T14:02:15;1.20;;;1.10;;
13951;SDS011;39535;52.192;9.886;2023-06-04T14:04:41;1.20;;;1.20;;
13951;SDS011;39535;52.192;9.886;2023-06-04T14:07:07;1.63;;;1.47;;
13951;SDS011;39535;52.192;9.886;2023-06-04T14:09:34;1.40;;;1.30;;
13951;SDS011;39535;52.192;9.886;2023-06-04T14:12:01;1.30;;;1.20;;
13951;SDS011;39535;52.192;9.886;2023-06-04T14:14:29;1.40;;;1.10;;
13951;SDS011;39535;52.192;9.886;2023-06-04T14:17:01;1.67;;;1.53;;
13951;SDS011;39535;52.192;9.886;2023-06-04T14:19:27;1.30;;;1.20;;
13951;SDS011;39535;52.192;9.886;2023-06-04T14:21:54;2.10;;;1.30;;
13951;SDS011;39535;52.192;9.886;2023-06-04T14:24:20;1.50;;;1.40;;
13951;SDS011;39535;52.192;9.886;2023-06-04T14:26:46;1.27;;;1.27;;
13951;SDS011;39535;52.192;9.886;2023-06-04T14:29:13;1.87;;;1.30;;
13951;SDS011;39535;52.192;9.886;2023-06-04T14:31:41;1.87;;;1.40;;
13951;SDS011;39535;52.192;9.886;2023-06-04T14:34:07;1.80;;;1.10;;
13951;SDS011;39535;52.192;9.886;2023-06-04T14:36:34;3.90;;;1.33;;
13951;SDS011;39535;52.192;9.886;2023-06-04T14:39:00;1.30;;;1.20;;
13951;SDS011;39535;52.192;9.886;2023-06-04T14:41:27;1.87;;;1.20;;
13951;SDS011;39535;52.192;9.886;2023-06-04T14:43:53;1.87;;;1.30;;
13951;SDS011;39535;52.192;9.886;2023-06-04T14:46:20;1.97;;;1.27;;
13951;SDS011;39535;52.192;9.886;2023-06-04T14:48:48;2.53;;;1.40;;